Conway, North Dakota
Current Conditions -  °F | °C
As of 4:15 PM on Tuesday 25 Nov 2014 (Local Time) from KGAF Reporting Station
Overcast Overcast  
Wind Chill: -15°   Ceiling: 2100
Heat Index: -8°   Visibility: 10mi
Dew Point: -11°   Wind: 10mph
Humidity: 79%   Direction: 40°NE
Pressure: 29.97"   Gusts: NA
Location:  48.2362°N, 97.4515°W
Report Text: KGAF 252215Z AUTO 04009KT 10SM OVC021 M08/M11 A2997 RMK AO2
Loading
Personal Weather Stations






























Interactive Weather Map New forecast layout! Learn more

10-Day Weather Forecast

Advertisements
Track Severe Weather on mobile